Time;durP1;ratioP1;P1;durP2;ratioP2;P2;SDS_P1;SDS_P2;PMS_P1;PMS_P2;Temp;Humidity;BMP_temperature;BMP_pressure;BME280_temperature;BME280_humidity;BME280_pressure;Samples;Min_cycle;Max_cycle;Signal;HPM_P1;HPM_P2
2024/01/05 00:01:55;;;;;;;0.80;0.50;;;7.40;99.90;;;;;;4260781;27;20019;-61
2024/01/05 00:03:57;;;;;;;1.37;0.30;;;7.40;99.90;;;;;;4261223;27;20035;-61
2024/01/05 00:05:58;;;;;;;1.60;0.30;;;7.30;99.90;;;;;;4260932;27;20428;-62
2024/01/05 00:08:00;;;;;;;0.67;0.40;;;7.20;99.90;;;;;;4260412;27;20413;-63
2024/01/05 00:10:01;;;;;;;1.13;0.70;;;7.20;99.90;;;;;;4261327;27;20011;-63
2024/01/05 00:12:03;;;;;;;0.57;0.50;;;7.20;99.90;;;;;;4261066;27;20425;-61
2024/01/05 00:14:05;;;;;;;0.50;0.50;;;7.20;99.90;;;;;;4260692;27;20031;-61
2024/01/05 00:16:06;;;;;;;0.73;0.37;;;7.20;99.90;;;;;;4260457;27;20031;-61
2024/01/05 00:18:08;;;;;;;1.57;0.40;;;7.10;99.90;;;;;;4260028;27;20095;-62
2024/01/05 00:20:10;;;;;;;1.87;0.77;;;7.20;99.90;;;;;;4260592;27;20095;-61
2024/01/05 00:22:11;;;;;;;0.70;0.40;;;7.10;99.90;;;;;;4261135;27;20034;-62
2024/01/05 00:24:13;;;;;;;2.13;0.63;;;7.10;99.90;;;;;;4260130;27;20076;-61
2024/01/05 00:26:14;;;;;;;2.63;0.97;;;7.10;99.90;;;;;;4261566;27;20030;-62
2024/01/05 00:28:15;;;;;;;3.10;0.67;;;7.10;99.90;;;;;;4260856;27;20035;-62
2024/01/05 00:30:16;;;;;;;2.27;0.87;;;7.10;99.90;;;;;;4260293;27;20087;-63
2024/01/05 00:32:17;;;;;;;1.67;0.37;;;7.10;99.90;;;;;;4260691;27;20034;-62
2024/01/05 00:34:18;;;;;;;1.23;0.50;;;7.10;99.90;;;;;;4260565;27;20035;-61
2024/01/05 00:36:20;;;;;;;2.97;0.80;;;7.00;99.90;;;;;;4260746;27;20027;-62
2024/01/05 00:38:21;;;;;;;1.20;0.30;;;7.10;99.90;;;;;;4260909;27;20558;-61
2024/01/05 00:40:22;;;;;;;2.00;0.50;;;7.00;99.90;;;;;;4260632;27;20014;-61
2024/01/05 00:42:23;;;;;;;0.80;0.37;;;7.00;99.90;;;;;;4260816;27;20035;-60
2024/01/05 00:44:26;;;;;;;1.33;0.60;;;7.00;99.90;;;;;;4260735;27;20095;-60
2024/01/05 00:46:28;;;;;;;2.80;0.93;;;7.00;99.90;;;;;;4260229;27;20076;-61
2024/01/05 00:48:29;;;;;;;1.30;0.53;;;7.00;99.90;;;;;;4260772;27;20023;-60
2024/01/05 00:50:30;;;;;;;3.93;1.60;;;6.90;99.90;;;;;;4260706;27;20499;-60
2024/01/05 00:52:31;;;;;;;1.73;0.40;;;6.90;99.90;;;;;;4260301;27;20398;-61
2024/01/05 00:54:33;;;;;;;2.63;1.00;;;6.90;99.90;;;;;;4260590;27;20876;-60
2024/01/05 00:56:34;;;;;;;1.13;0.50;;;6.90;99.90;;;;;;4261055;27;21622;-59
2024/01/05 00:58:35;;;;;;;2.97;1.10;;;6.90;99.90;;;;;;4260779;27;20031;-61
2024/01/05 01:00:36;;;;;;;3.50;1.27;;;6.80;99.90;;;;;;4260504;27;20047;-60
2024/01/05 01:02:38;;;;;;;3.33;1.03;;;6.80;99.90;;;;;;4260168;27;20436;-60
2024/01/05 01:04:39;;;;;;;3.80;0.63;;;6.80;99.90;;;;;;4259806;27;20035;-60
2024/01/05 01:06:40;;;;;;;0.80;0.30;;;6.80;99.90;;;;;;4260199;27;20027;-60
2024/01/05 01:08:41;;;;;;;2.10;0.50;;;6.80;99.90;;;;;;4259989;27;20027;-60
2024/01/05 01:10:42;;;;;;;0.80;0.50;;;6.70;99.90;;;;;;4259962;27;20075;-61
2024/01/05 01:12:43;;;;;;;1.13;0.60;;;6.80;99.90;;;;;;4258646;27;20027;-60
2024/01/05 01:14:45;;;;;;;0.40;0.30;;;6.70;99.90;;;;;;4260735;27;20084;-62
2024/01/05 01:16:46;;;;;;;0.60;0.33;;;6.70;99.90;;;;;;4258605;27;20080;-60
2024/01/05 01:18:47;;;;;;;0.50;0.40;;;6.70;99.90;;;;;;4243233;27;20039;-61
2024/01/05 01:20:48;;;;;;;2.00;0.50;;;6.70;99.90;;;;;;4247348;27;20371;-61
2024/01/05 01:22:49;;;;;;;0.90;0.50;;;6.70;99.90;;;;;;4260165;27;20474;-61
2024/01/05 01:24:51;;;;;;;0.53;0.33;;;6.60;99.90;;;;;;4260847;27;20027;-61
2024/01/05 01:26:52;;;;;;;0.60;0.30;;;6.60;99.90;;;;;;4260362;27;20092;-62
2024/01/05 01:28:53;;;;;;;0.80;0.30;;;6.60;99.90;;;;;;4259513;27;20452;-61
2024/01/05 01:30:54;;;;;;;1.90;0.37;;;6.50;99.90;;;;;;4259812;27;20046;-60
2024/01/05 01:32:55;;;;;;;0.40;0.20;;;6.50;99.90;;;;;;4260021;27;20043;-62
2024/01/05 01:34:56;;;;;;;0.60;0.40;;;6.50;99.90;;;;;;4259584;27;20023;-61
2024/01/05 01:36:57;;;;;;;0.20;0.17;;;6.50;99.90;;;;;;4262133;27;20535;-62
2024/01/05 01:38:58;;;;;;;0.60;0.30;;;6.60;99.90;;;;;;4262678;27;20023;-59
2024/01/05 01:41:00;;;;;;;0.80;0.50;;;6.50;99.90;;;;;;4262944;27;20043;-60
2024/01/05 01:43:01;;;;;;;0.80;0.30;;;6.50;99.90;;;;;;4263389;27;20027;-59
2024/01/05 01:45:02;;;;;;;0.50;0.23;;;6.50;99.90;;;;;;4261553;27;20562;-61
2024/01/05 01:47:04;;;;;;;0.70;0.40;;;6.40;99.90;;;;;;4263571;27;20026;-60
2024/01/05 01:49:06;;;;;;;2.93;0.50;;;6.40;99.90;;;;;;4262863;27;20451;-61
2024/01/05 01:51:07;;;;;;;1.10;0.43;;;6.30;99.90;;;;;;4263046;27;20051;-61
2024/01/05 01:53:10;;;;;;;1.17;0.30;;;6.30;99.90;;;;;;4262505;27;21200;-60
2024/01/05 01:55:12;;;;;;;0.83;0.30;;;6.20;99.90;;;;;;4263329;27;20094;-58
2024/01/05 01:57:15;;;;;;;1.43;0.30;;;6.20;99.90;;;;;;4262757;27;20039;-61
2024/01/05 01:59:16;;;;;;;1.93;0.30;;;6.10;99.90;;;;;;4262406;27;20092;-62
2024/01/05 02:01:18;;;;;;;1.07;0.30;;;6.10;99.90;;;;;;4262688;27;20039;-60
2024/01/05 02:03:19;;;;;;;1.50;0.60;;;6.10;99.90;;;;;;4262697;27;20027;-60
2024/01/05 02:05:21;;;;;;;0.60;0.30;;;6.10;99.90;;;;;;4263140;27;20019;-61
2024/01/05 02:07:22;;;;;;;0.43;0.30;;;6.10;99.90;;;;;;4262605;27;20562;-59
2024/01/05 02:09:24;;;;;;;1.00;0.40;;;6.10;99.90;;;;;;4263274;27;20027;-64
2024/01/05 02:11:25;;;;;;;0.50;0.30;;;6.00;99.90;;;;;;4262816;27;20039;-60
2024/01/05 02:13:27;;;;;;;1.93;0.20;;;6.00;99.90;;;;;;4262162;27;20095;-61
2024/01/05 02:15:29;;;;;;;0.50;0.30;;;6.00;99.90;;;;;;4261223;27;20091;-60
2024/01/05 02:17:34;;;;;;;0.53;0.40;;;6.00;99.90;;;;;;4262678;27;20039;-60
2024/01/05 02:19:35;;;;;;;0.23;0.13;;;6.00;99.90;;;;;;4262515;27;20051;-60
2024/01/05 02:21:40;;;;;;;0.63;0.30;;;6.00;99.90;;;;;;4262384;27;20043;-61
2024/01/05 02:23:41;;;;;;;1.23;0.27;;;6.00;99.90;;;;;;4262812;27;20076;-61
2024/01/05 02:25:42;;;;;;;1.67;0.47;;;6.10;99.90;;;;;;4263031;27;20083;-61
2024/01/05 02:27:43;;;;;;;0.70;0.37;;;6.10;99.90;;;;;;4263070;27;20535;-60
2024/01/05 02:29:45;;;;;;;0.73;0.40;;;6.10;99.90;;;;;;4262402;27;20027;-60
2024/01/05 02:31:46;;;;;;;0.73;0.30;;;6.20;99.90;;;;;;4262229;27;20463;-60
2024/01/05 02:33:47;;;;;;;0.50;0.20;;;6.20;99.90;;;;;;4262921;27;20464;-61
2024/01/05 02:35:50;;;;;;;0.70;0.40;;;6.30;99.90;;;;;;4262644;27;20420;-60
2024/01/05 02:37:51;;;;;;;0.90;0.30;;;6.30;99.90;;;;;;4262485;27;20617;-60
2024/01/05 02:39:52;;;;;;;0.60;0.23;;;6.30;99.90;;;;;;4262197;27;20559;-60
2024/01/05 02:41:53;;;;;;;1.27;0.77;;;6.30;99.90;;;;;;4262712;27;20023;-61
2024/01/05 02:43:54;;;;;;;0.77;0.27;;;6.30;99.90;;;;;;4243696;27;20476;-62
2024/01/05 02:45:56;;;;;;;1.07;0.30;;;6.30;99.90;;;;;;4245368;27;20527;-60
2024/01/05 02:47:57;;;;;;;0.13;0.10;;;6.30;99.90;;;;;;4259687;27;20518;-60
2024/01/05 02:49:58;;;;;;;2.90;0.40;;;6.30;99.90;;;;;;4261317;27;20091;-61
2024/01/05 02:51:59;;;;;;;0.30;0.20;;;6.30;99.90;;;;;;4262419;27;20071;-61
2024/01/05 02:54:00;;;;;;;0.73;0.30;;;6.40;99.90;;;;;;4262527;27;20072;-61
2024/01/05 02:56:01;;;;;;;1.13;0.50;;;6.40;99.90;;;;;;4262014;27;20031;-60
2024/01/05 02:58:03;;;;;;;1.50;0.43;;;6.40;99.90;;;;;;4262404;27;20075;-60
2024/01/05 03:00:05;;;;;;;1.43;0.40;;;6.40;99.90;;;;;;4261855;27;20067;-60
2024/01/05 03:02:06;;;;;;;1.67;0.70;;;6.50;99.90;;;;;;4261873;27;20027;-59
2024/01/05 03:04:08;;;;;;;2.43;0.47;;;6.50;99.90;;;;;;4260124;27;20495;-61
2024/01/05 03:06:09;;;;;;;0.70;0.47;;;6.50;99.90;;;;;;4260857;27;20154;-61
2024/01/05 03:08:10;;;;;;;0.73;0.47;;;6.50;99.90;;;;;;4262119;27;20030;-60
2024/01/05 03:10:11;;;;;;;5.20;0.30;;;6.50;99.90;;;;;;4261938;27;20079;-59
2024/01/05 03:12:12;;;;;;;0.77;0.20;;;6.50;99.90;;;;;;4261333;27;20095;-60
2024/01/05 03:14:15;;;;;;;0.60;0.30;;;6.40;99.90;;;;;;4261713;27;20031;-60
2024/01/05 03:16:16;;;;;;;3.80;1.20;;;6.40;99.90;;;;;;4261078;27;20440;-60
2024/01/05 03:18:17;;;;;;;2.77;1.37;;;6.40;99.90;;;;;;4260528;27;20386;-59
2024/01/05 03:20:19;;;;;;;5.13;2.20;;;6.40;99.90;;;;;;4261336;27;20031;-60
2024/01/05 03:22:21;;;;;;;2.33;0.70;;;6.40;99.90;;;;;;4261148;27;20539;-58
2024/01/05 03:24:22;;;;;;;1.17;0.40;;;6.40;99.90;;;;;;4261894;27;20075;-59
2024/01/05 03:26:23;;;;;;;2.40;0.30;;;6.40;99.90;;;;;;4262059;27;20079;-62
2024/01/05 03:28:25;;;;;;;2.83;0.33;;;6.30;99.90;;;;;;4261393;27;20035;-61
2024/01/05 03:30:26;;;;;;;1.40;0.47;;;6.30;99.90;;;;;;4261294;27;20896;-61
2024/01/05 03:32:27;;;;;;;0.53;0.40;;;6.30;99.90;;;;;;4260529;27;20527;-60
2024/01/05 03:34:28;;;;;;;1.47;0.40;;;6.20;99.90;;;;;;4261750;27;20023;-61
2024/01/05 03:36:29;;;;;;;1.13;0.27;;;6.20;99.90;;;;;;4261138;27;20043;-60
2024/01/05 03:38:31;;;;;;;2.33;0.83;;;6.20;99.90;;;;;;4260494;27;20424;-60
2024/01/05 03:40:32;;;;;;;0.77;0.40;;;6.20;99.90;;;;;;4261067;27;20571;-60
2024/01/05 03:42:33;;;;;;;0.80;0.50;;;6.20;99.90;;;;;;4260682;27;20035;-62
2024/01/05 03:44:35;;;;;;;1.23;0.50;;;6.20;99.90;;;;;;4260332;27;20095;-61
2024/01/05 03:46:36;;;;;;;0.70;0.40;;;6.20;99.90;;;;;;4261078;27;20091;-62
2024/01/05 03:48:38;;;;;;;3.07;0.20;;;6.20;99.90;;;;;;4260277;27;20038;-61
2024/01/05 03:50:40;;;;;;;1.63;0.37;;;6.20;99.90;;;;;;4261584;27;20082;-62
2024/01/05 03:52:41;;;;;;;0.90;0.20;;;6.20;99.90;;;;;;4261468;27;20043;-61
2024/01/05 03:54:42;;;;;;;1.20;0.90;;;6.20;99.90;;;;;;4260605;27;20035;-60
2024/01/05 03:56:48;;;;;;;0.97;0.30;;;6.20;99.90;;;;;;4261314;27;20087;-60
2024/01/05 03:58:49;;;;;;;1.40;0.40;;;6.20;99.90;;;;;;4260619;27;20087;-60
2024/01/05 04:00:50;;;;;;;2.43;0.40;;;6.20;99.90;;;;;;4260227;27;20444;-61
2024/01/05 04:02:51;;;;;;;2.70;0.93;;;6.20;99.90;;;;;;4244061;27;20414;-60
2024/01/05 04:04:52;;;;;;;0.50;0.30;;;6.20;99.90;;;;;;4248990;27;20030;-60
2024/01/05 04:06:55;;;;;;;1.97;0.47;;;6.20;99.90;;;;;;4259795;27;20072;-62
2024/01/05 04:08:56;;;;;;;0.53;0.30;;;6.10;99.90;;;;;;4261296;27;20490;-60
2024/01/05 04:10:57;;;;;;;0.90;0.37;;;6.20;99.90;;;;;;4260792;27;20019;-60
2024/01/05 04:12:58;;;;;;;1.57;0.40;;;6.10;99.90;;;;;;4260551;27;20076;-61
2024/01/05 04:15:00;;;;;;;1.77;0.40;;;6.10;99.90;;;;;;4259433;27;20141;-60
2024/01/05 04:17:01;;;;;;;1.10;0.40;;;6.10;99.90;;;;;;4260742;27;20071;-60
2024/01/05 04:19:02;;;;;;;2.10;0.50;;;6.10;99.90;;;;;;4260497;27;20039;-61
2024/01/05 04:21:03;;;;;;;0.50;0.20;;;6.00;99.90;;;;;;4260725;27;20080;-60
2024/01/05 04:23:05;;;;;;;1.53;0.50;;;6.10;99.90;;;;;;4260084;27;20031;-61
2024/01/05 04:25:07;;;;;;;1.03;0.43;;;6.10;99.90;;;;;;4261075;27;20433;-60
2024/01/05 04:27:08;;;;;;;2.20;0.43;;;6.10;99.90;;;;;;4259189;27;20039;-62
2024/01/05 04:29:10;;;;;;;1.40;0.60;;;6.10;99.90;;;;;;4261237;27;20068;-62
2024/01/05 04:31:11;;;;;;;0.73;0.40;;;6.20;99.90;;;;;;4260783;27;20469;-61
2024/01/05 04:33:12;;;;;;;1.50;0.40;;;6.20;99.90;;;;;;4260424;27;20059;-61
2024/01/05 04:35:13;;;;;;;0.47;0.33;;;6.20;99.90;;;;;;4260738;27;20488;-60
2024/01/05 04:37:14;;;;;;;0.57;0.50;;;6.20;99.90;;;;;;4260323;27;20531;-61
2024/01/05 04:39:16;;;;;;;1.07;0.20;;;6.30;99.90;;;;;;4260606;27;20076;-60
2024/01/05 04:41:18;;;;;;;2.73;0.47;;;6.30;99.90;;;;;;4260665;27;20026;-61
2024/01/05 04:43:19;;;;;;;0.70;0.30;;;6.20;99.90;;;;;;4260254;27;20043;-61
2024/01/05 04:45:20;;;;;;;0.63;0.40;;;6.30;99.90;;;;;;4260139;27;20031;-61
2024/01/05 04:47:21;;;;;;;0.50;0.30;;;6.30;99.90;;;;;;4260206;27;20035;-62
2024/01/05 04:49:23;;;;;;;1.07;0.60;;;6.30;99.90;;;;;;4260224;27;20035;-61
2024/01/05 04:51:24;;;;;;;2.30;0.90;;;6.40;99.90;;;;;;4260639;27;20364;-60
2024/01/05 04:53:26;;;;;;;2.33;0.33;;;6.40;99.90;;;;;;4259991;27;20042;-60
2024/01/05 04:55:27;;;;;;;1.33;0.70;;;6.40;99.90;;;;;;4260393;27;20081;-57
2024/01/05 04:57:28;;;;;;;0.70;0.20;;;6.40;99.90;;;;;;4260783;27;20027;-60
2024/01/05 04:59:30;;;;;;;3.57;0.30;;;6.40;99.90;;;;;;4260457;27;20032;-61
2024/01/05 05:01:31;;;;;;;1.03;0.30;;;6.30;99.90;;;;;;4258922;27;20051;-60
2024/01/05 05:03:33;;;;;;;1.00;0.60;;;6.30;99.90;;;;;;4260282;27;20490;-60
2024/01/05 05:05:34;;;;;;;0.80;0.40;;;6.30;99.90;;;;;;4260155;27;20071;-61
2024/01/05 05:07:35;;;;;;;0.80;0.20;;;6.30;99.90;;;;;;4259448;27;20072;-61
2024/01/05 05:09:37;;;;;;;1.27;0.50;;;6.30;99.90;;;;;;4259356;27;20407;-60
2024/01/05 05:11:42;;;;;;;1.23;0.20;;;6.30;99.90;;;;;;4260872;27;20071;-61
2024/01/05 05:13:43;;;;;;;1.00;0.40;;;6.30;99.90;;;;;;4263060;27;20083;-60
2024/01/05 05:15:44;;;;;;;0.77;0.30;;;6.30;99.90;;;;;;4263598;27;20030;-60
2024/01/05 05:17:46;;;;;;;2.83;0.33;;;6.20;99.90;;;;;;4264019;27;20048;-61
2024/01/05 05:19:47;;;;;;;2.63;0.97;;;6.20;99.90;;;;;;4262648;27;20819;-61
2024/01/05 05:21:48;;;;;;;1.70;1.07;;;6.20;99.90;;;;;;4262869;27;20080;-61
2024/01/05 05:23:49;;;;;;;2.43;0.50;;;6.20;99.90;;;;;;4263122;27;20039;-61
2024/01/05 05:25:50;;;;;;;2.47;0.60;;;6.10;99.90;;;;;;4264162;27;20383;-60
2024/01/05 05:27:51;;;;;;;2.50;0.40;;;6.10;99.90;;;;;;4263748;27;20478;-62
2024/01/05 05:29:53;;;;;;;1.90;0.50;;;6.00;99.90;;;;;;4262690;27;20514;-60
2024/01/05 05:31:54;;;;;;;1.20;0.50;;;6.00;99.90;;;;;;4262987;27;20043;-61
2024/01/05 05:33:55;;;;;;;1.70;0.53;;;6.00;99.90;;;;;;4262849;27;20054;-61
2024/01/05 05:35:56;;;;;;;2.70;1.77;;;5.90;99.90;;;;;;4262256;27;20088;-61
2024/01/05 05:37:57;;;;;;;0.87;0.73;;;5.90;99.90;;;;;;4263263;27;20035;-61
2024/01/05 05:39:59;;;;;;;0.70;0.67;;;5.90;99.90;;;;;;4263481;27;20477;-62
2024/01/05 05:42:00;;;;;;;1.23;0.80;;;5.80;99.90;;;;;;4263360;27;20560;-62
2024/01/05 05:44:01;;;;;;;6.17;1.07;;;5.70;99.90;;;;;;4262700;27;20095;-61
2024/01/05 05:46:02;;;;;;;1.80;0.63;;;5.70;99.90;;;;;;4262960;27;20107;-61
2024/01/05 05:48:04;;;;;;;0.80;0.40;;;5.70;99.90;;;;;;4263315;27;20031;-58
2024/01/05 05:50:06;;;;;;;1.67;0.60;;;5.70;99.90;;;;;;4263305;27;20428;-61
2024/01/05 05:52:07;;;;;;;1.80;0.70;;;5.60;99.90;;;;;;4263310;27;20451;-59
2024/01/05 05:54:08;;;;;;;0.80;0.40;;;5.60;99.90;;;;;;4262865;27;20035;-61
2024/01/05 05:56:10;;;;;;;3.53;0.80;;;5.60;99.90;;;;;;4263376;27;20482;-61
2024/01/05 05:58:11;;;;;;;1.50;0.80;;;5.60;99.90;;;;;;4263299;27;20803;-61
2024/01/05 06:00:12;;;;;;;2.07;0.90;;;5.50;99.90;;;;;;4262170;27;20447;-60
2024/01/05 06:02:14;;;;;;;1.37;0.70;;;5.50;99.90;;;;;;4252518;27;20463;-60
2024/01/05 06:04:15;;;;;;;2.67;1.50;;;5.50;99.90;;;;;;4248200;27;20470;-60
2024/01/05 06:06:19;;;;;;;2.50;1.10;;;5.40;99.90;;;;;;4250064;27;20042;-61
2024/01/05 06:08:20;;;;;;;4.93;2.23;;;5.40;99.90;;;;;;4260097;27;20111;-60
2024/01/05 06:10:22;;;;;;;10.93;6.30;;;5.40;99.90;;;;;;4263256;27;20031;-62
2024/01/05 06:12:23;;;;;;;10.47;6.53;;;5.40;99.90;;;;;;4256021;27;20023;-60
2024/01/05 06:14:24;;;;;;;10.30;7.60;;;5.30;99.90;;;;;;4245744;27;20043;-60
2024/01/05 06:16:25;;;;;;;6.93;4.97;;;5.30;99.90;;;;;;4254535;27;20058;-62
2024/01/05 06:18:27;;;;;;;7.50;5.17;;;5.30;99.90;;;;;;4262758;27;20570;-60
2024/01/05 06:20:28;;;;;;;7.87;6.97;;;5.30;99.90;;;;;;4262052;27;20091;-61
2024/01/05 06:22:29;;;;;;;4.83;4.30;;;5.30;99.90;;;;;;4252875;27;20080;-62
2024/01/05 06:24:30;;;;;;;3.60;2.67;;;5.50;99.90;;;;;;4262670;27;20027;-60
2024/01/05 06:26:32;;;;;;;1.93;1.80;;;5.70;99.90;;;;;;4262647;27;20042;-59
2024/01/05 06:28:33;;;;;;;4.57;1.60;;;6.00;99.90;;;;;;4262830;27;20031;-60
2024/01/05 06:30:34;;;;;;;2.93;1.63;;;6.20;99.90;;;;;;4262364;27;20035;-59
2024/01/05 06:32:36;;;;;;;1.00;0.80;;;6.50;99.90;;;;;;4262026;27;20051;-61
2024/01/05 06:34:37;;;;;;;2.93;1.37;;;6.80;99.90;;;;;;4261956;27;20352;-60
2024/01/05 06:36:38;;;;;;;1.40;0.90;;;7.10;99.90;;;;;;4254399;27;20051;-59
2024/01/05 06:38:39;;;;;;;4.23;1.43;;;7.30;99.90;;;;;;4245559;27;20038;-59
2024/01/05 06:40:41;;;;;;;4.60;1.60;;;7.60;99.90;;;;;;4261582;27;20031;-60
2024/01/05 06:42:43;;;;;;;4.10;1.80;;;7.80;99.90;;;;;;4261884;27;20144;-61
2024/01/05 06:44:44;;;;;;;7.33;2.73;;;8.00;99.90;;;;;;4262741;27;20102;-62
2024/01/05 06:46:46;;;;;;;4.77;1.60;;;8.10;99.90;;;;;;4262045;27;20099;-62
2024/01/05 06:48:47;;;;;;;3.00;1.40;;;8.20;99.90;;;;;;4262139;27;20031;-61
2024/01/05 06:50:48;;;;;;;1.33;0.90;;;8.50;99.90;;;;;;4261610;27;20031;-61
2024/01/05 06:52:50;;;;;;;1.37;0.60;;;8.50;99.90;;;;;;4243438;27;20047;-61
2024/01/05 06:54:51;;;;;;;6.37;0.63;;;8.60;99.90;;;;;;4244980;27;20072;-62
2024/01/05 06:56:52;;;;;;;1.53;0.60;;;8.60;99.90;;;;;;4254477;27;20519;-62
2024/01/05 06:58:55;;;;;;;1.77;0.80;;;8.60;99.90;;;;;;4258205;27;20637;-62
2024/01/05 07:00:56;;;;;;;1.50;0.70;;;8.60;99.90;;;;;;4247549;27;20091;-65
2024/01/05 07:02:57;;;;;;;3.23;1.33;;;8.60;99.90;;;;;;4255972;27;20042;-62
2024/01/05 07:04:59;;;;;;;1.77;1.17;;;8.50;99.90;;;;;;4261321;27;20090;-62
2024/01/05 07:07:00;;;;;;;2.37;1.00;;;8.50;99.90;;;;;;4259316;27;20072;-59
2024/01/05 07:09:01;;;;;;;2.87;1.07;;;8.60;99.90;;;;;;4261551;27;20372;-62
2024/01/05 07:11:02;;;;;;;1.90;0.90;;;8.70;99.90;;;;;;4261551;27;20091;-61
2024/01/05 07:13:07;;;;;;;2.50;1.47;;;8.90;99.90;;;;;;4261220;27;20067;-62
2024/01/05 07:15:08;;;;;;;1.73;0.80;;;9.00;99.90;;;;;;4250733;27;20449;-59
2024/01/05 07:17:09;;;;;;;1.20;0.60;;;9.10;99.90;;;;;;4253970;27;20071;-60
2024/01/05 07:19:10;;;;;;;1.57;0.50;;;9.00;99.90;;;;;;4259942;27;20128;-61
2024/01/05 07:21:13;;;;;;;1.27;0.40;;;9.10;99.90;;;;;;4260881;27;20035;-60
2024/01/05 07:23:14;;;;;;;6.33;1.17;;;9.10;99.90;;;;;;4261622;27;20079;-63
2024/01/05 07:25:16;;;;;;;2.47;0.80;;;9.00;99.90;;;;;;4261347;27;20152;-63
2024/01/05 07:27:17;;;;;;;1.80;1.33;;;9.00;99.90;;;;;;4249542;27;20092;-62
2024/01/05 07:29:18;;;;;;;2.20;1.20;;;8.90;99.90;;;;;;4242897;27;20035;-60
2024/01/05 07:31:23;;;;;;;3.57;1.23;;;8.80;99.90;;;;;;4245693;27;20551;-63
2024/01/05 07:33:24;;;;;;;3.20;1.23;;;8.80;99.90;;;;;;4260587;27;20027;-61
2024/01/05 07:35:26;;;;;;;4.40;2.10;;;8.80;99.90;;;;;;4260485;27;20095;-63
2024/01/05 07:37:27;;;;;;;5.07;1.27;;;8.80;99.90;;;;;;4249343;27;20839;-63
2024/01/05 07:39:28;;;;;;;2.47;0.93;;;8.80;99.90;;;;;;4254512;27;21013;-59
2024/01/05 07:41:29;;;;;;;3.17;1.27;;;8.70;99.90;;;;;;4261166;27;20127;-62
2024/01/05 07:43:31;;;;;;;2.30;1.40;;;8.80;99.90;;;;;;4260325;27;20034;-62
2024/01/05 07:45:32;;;;;;;3.43;2.33;;;9.10;99.90;;;;;;4260929;27;20087;-61
2024/01/05 07:47:33;;;;;;;4.90;2.23;;;9.50;99.90;;;;;;4260766;27;20390;-66
2024/01/05 07:49:35;;;;;;;1.70;1.00;;;9.70;99.90;;;;;;4260571;27;20035;-63
2024/01/05 07:51:36;;;;;;;3.03;1.87;;;9.80;99.90;;;;;;4260283;27;20022;-62
2024/01/05 07:53:38;;;;;;;4.40;1.73;;;10.00;99.90;;;;;;4260618;27;20088;-62
2024/01/05 07:55:39;;;;;;;3.67;1.20;;;10.10;99.90;;;;;;4260582;27;20084;-70
2024/01/05 07:57:41;;;;;;;2.37;0.80;;;10.10;99.90;;;;;;4260635;27;20076;-63
2024/01/05 07:59:42;;;;;;;2.83;1.37;;;9.80;99.90;;;;;;4260836;27;20056;-66
2024/01/05 08:01:43;;;;;;;3.77;1.37;;;10.10;99.90;;;;;;4261263;27;20058;-63
2024/01/05 08:03:45;;;;;;;3.40;1.35;;;10.70;99.90;;;;;;4252977;27;20051;-63
2024/01/05 08:05:47;;;;;;;3.10;1.42;;;11.40;99.90;;;;;;4247263;27;20027;-65
2024/01/05 08:07:48;;;;;;;3.90;1.33;;;11.80;99.90;;;;;;4253962;27;20023;-61
2024/01/05 08:09:53;;;;;;;7.25;2.55;;;12.10;99.90;;;;;;4259988;27;20071;-65
2024/01/05 08:11:54;;;;;;;14.68;8.00;;;12.20;99.90;;;;;;4245139;27;20026;-62
2024/01/05 08:13:55;;;;;;;15.55;8.73;;;11.60;99.90;;;;;;4257838;27;20440;-64
2024/01/05 08:15:56;;;;;;;12.52;6.32;;;10.80;99.90;;;;;;4245269;27;20088;-64
2024/01/05 08:17:58;;;;;;;10.55;5.38;;;10.00;99.90;;;;;;4256905;27;20019;-64
2024/01/05 08:20:00;;;;;;;8.47;3.27;;;9.60;99.90;;;;;;4260322;27;20617;-62
2024/01/05 08:22:01;;;;;;;6.13;3.37;;;9.10;99.90;;;;;;4259829;27;20039;-62
2024/01/05 08:24:02;;;;;;;6.20;3.27;;;9.00;99.90;;;;;;4257579;27;20107;-63
2024/01/05 08:26:04;;;;;;;5.47;3.37;;;8.90;99.90;;;;;;4260502;27;20356;-63
2024/01/05 08:28:05;;;;;;;10.17;3.20;;;8.80;99.90;;;;;;4246359;27;20441;-60
2024/01/05 08:30:10;;;;;;;6.27;3.17;;;8.90;99.90;;;;;;4248716;27;20056;-61
2024/01/05 08:32:11;;;;;;;6.67;3.07;;;9.10;99.90;;;;;;4259880;27;20095;-62
2024/01/05 08:34:12;;;;;;;5.60;3.00;;;9.10;99.90;;;;;;4260265;27;20079;-62
2024/01/05 08:36:14;;;;;;;6.80;3.03;;;9.10;99.90;;;;;;4247885;27;20023;-61
2024/01/05 08:38:15;;;;;;;3.80;2.30;;;9.30;99.90;;;;;;4259756;27;20498;-62
2024/01/05 08:40:17;;;;;;;4.93;2.30;;;9.60;99.90;;;;;;4258348;27;20082;-62
2024/01/05 08:42:18;;;;;;;1.93;1.10;;;9.90;99.90;;;;;;4260462;27;20038;-60
2024/01/05 08:44:23;;;;;;;2.93;1.10;;;10.00;99.90;;;;;;4259528;27;20324;-63
2024/01/05 08:46:28;;;;;;;3.87;0.90;;;10.20;99.90;;;;;;4259832;27;20445;-65
2024/01/05 08:48:29;;;;;;;1.83;0.90;;;10.40;99.90;;;;;;4259906;27;20042;-66
2024/01/05 08:50:30;;;;;;;1.53;1.00;;;10.70;99.90;;;;;;4252052;27;20035;-62
2024/01/05 08:52:31;;;;;;;2.50;0.70;;;10.90;99.90;;;;;;4257568;27;20043;-61
2024/01/05 08:54:33;;;;;;;4.23;0.80;;;10.90;99.90;;;;;;4259506;27;20038;-66
2024/01/05 08:56:35;;;;;;;13.80;3.37;;;11.00;99.90;;;;;;4242928;28;20499;-66
2024/01/05 08:58:36;;;;;;;3.60;1.70;;;10.90;99.90;;;;;;4243713;27;20039;-61
2024/01/05 09:00:37;;;;;;;5.00;1.80;;;10.50;99.90;;;;;;4251336;27;20084;-64
2024/01/05 09:02:38;;;;;;;2.23;1.60;;;10.30;99.90;;;;;;4259948;27;20539;-65
2024/01/05 09:04:39;;;;;;;5.90;2.10;;;10.30;99.90;;;;;;4259863;27;20035;-63
2024/01/05 09:06:41;;;;;;;0.90;0.40;;;10.50;99.90;;;;;;4258763;27;20038;-62
2024/01/05 09:08:42;;;;;;;1.03;0.60;;;10.50;99.90;;;;;;4244767;27;20035;-61
2024/01/05 09:10:43;;;;;;;0.93;0.50;;;10.60;99.90;;;;;;4249918;27;20088;-62
2024/01/05 09:12:44;;;;;;;2.20;0.53;;;10.60;99.90;;;;;;4255042;27;20035;-68
2024/01/05 09:14:46;;;;;;;1.80;0.60;;;10.40;99.90;;;;;;4258745;27;20479;-63
2024/01/05 09:16:47;;;;;;;4.23;0.60;;;10.10;99.90;;;;;;4242615;27;20515;-62
2024/01/05 09:18:49;;;;;;;0.83;0.50;;;10.00;99.90;;;;;;4242843;27;20499;-62
2024/01/05 09:20:53;;;;;;;1.47;0.80;;;10.00;99.90;;;;;;4251936;27;20075;-61
2024/01/05 09:22:54;;;;;;;1.03;0.60;;;9.90;99.90;;;;;;4258912;27;20051;-61
2024/01/05 09:24:55;;;;;;;1.57;0.70;;;9.90;99.90;;;;;;4258732;27;20538;-61
2024/01/05 09:26:56;;;;;;;3.07;0.83;;;9.80;99.90;;;;;;4242861;28;20068;-62
2024/01/05 09:28:58;;;;;;;2.37;1.10;;;9.90;99.90;;;;;;4259475;27;20042;-62
2024/01/05 09:30:59;;;;;;;2.97;0.60;;;9.90;99.90;;;;;;4258889;27;20094;-62
2024/01/05 09:33:02;;;;;;;4.33;1.33;;;9.90;99.90;;;;;;4260033;27;20027;-61
2024/01/05 09:35:04;;;;;;;3.00;1.40;;;9.90;99.90;;;;;;4256621;27;20051;-59
2024/01/05 09:37:05;;;;;;;0.87;0.60;;;10.00;99.90;;;;;;4259236;27;20083;-60
2024/01/05 09:39:07;;;;;;;2.60;1.17;;;10.00;99.90;;;;;;4258330;27;20379;-60
2024/01/05 09:41:13;;;;;;;3.87;1.20;;;10.00;99.90;;;;;;4252801;27;20415;-57
2024/01/05 09:43:16;;;;;;;19.27;7.27;;;9.90;99.90;;;;;;4258569;27;20451;-63
2024/01/05 09:45:22;;;;;;;2.57;1.10;;;9.80;99.90;;;;;;4255264;27;20054;-60
2024/01/05 09:47:24;;;;;;;3.07;1.50;;;9.80;99.90;;;;;;4259397;27;20130;-61
2024/01/05 09:49:25;;;;;;;12.63;5.30;;;9.90;99.90;;;;;;4259745;27;20456;-58
2024/01/05 09:51:30;;;;;;;9.27;2.80;;;9.90;99.90;;;;;;4246263;27;20051;-62
2024/01/05 09:53:32;;;;;;;1.83;0.80;;;10.00;99.90;;;;;;4251758;27;20112;-62
2024/01/05 09:55:33;;;;;;;0.70;0.40;;;10.20;99.90;;;;;;4259555;27;20034;-60
2024/01/05 09:57:36;;;;;;;1.93;0.73;;;10.40;99.90;;;;;;4255693;27;20035;-61
2024/01/05 09:59:38;;;;;;;11.50;2.03;;;10.50;99.90;;;;;;4258645;27;20079;-60
2024/01/05 10:01:41;;;;;;;3.90;1.07;;;10.30;99.90;;;;;;4262769;27;20443;-61
2024/01/05 10:03:45;;;;;;;11.57;4.63;;;10.20;99.90;;;;;;4261656;27;20127;-59
2024/01/05 10:05:52;;;;;;;1.53;0.43;;;10.20;99.90;;;;;;4262639;27;20076;-59
2024/01/05 10:07:53;;;;;;;3.17;0.50;;;10.10;99.90;;;;;;4259615;27;20046;-63
2024/01/05 10:09:55;;;;;;;0.80;0.60;;;10.00;99.90;;;;;;4261994;27;20014;-63
2024/01/05 10:11:57;;;;;;;2.53;1.13;;;9.90;99.90;;;;;;4263008;27;20047;-59
2024/01/05 10:14:13;;;;;;;2.13;1.00;;;9.80;99.90;;;;;;4261572;27;20035;-59
2024/01/05 10:16:17;;;;;;;5.97;1.27;;;9.70;99.90;;;;;;4261940;27;20035;-60
2024/01/05 10:18:18;;;;;;;3.83;1.13;;;9.60;99.90;;;;;;4261792;27;20039;-61
2024/01/05 10:20:20;;;;;;;2.80;1.07;;;9.60;99.90;;;;;;4262581;27;20424;-58
2024/01/05 10:22:21;;;;;;;3.13;0.80;;;9.50;99.90;;;;;;4261608;27;20043;-62
2024/01/05 10:24:29;;;;;;;3.43;1.50;;;9.50;99.90;;;;;;4249808;27;20042;-65
2024/01/05 10:26:33;;;;;;;5.20;1.10;;;9.60;99.90;;;;;;4257185;27;20078;-62
2024/01/05 10:28:37;;;;;;;4.03;0.80;;;9.60;99.90;;;;;;4254083;27;20078;-62
2024/01/05 10:30:39;;;;;;;6.90;1.57;;;9.60;99.90;;;;;;4251727;27;20110;-62
2024/01/05 10:32:40;;;;;;;2.73;0.90;;;9.60;99.90;;;;;;4246733;27;20083;-62
2024/01/05 10:34:49;;;;;;;4.60;0.77;;;9.70;99.90;;;;;;4251831;27;20462;-63
2024/01/05 10:37:03;;;;;;;2.83;1.13;;;9.70;99.90;;;;;;4245137;27;20072;-62
2024/01/05 10:39:08;;;;;;;1.87;0.80;;;9.70;99.90;;;;;;4253858;27;20088;-63
2024/01/05 10:41:10;;;;;;;2.97;0.90;;;9.70;99.90;;;;;;4245148;27;20047;-62